Terminal Aerodrome Forecast
Issued by NWS Shreveport, LA

Home | Current Version | Previous Version | Text Only | Print | Product List | Glossary On
Versions: 1 2 3 4 5 6 7 8 9 10 11 12 13 14 15 16
000
FTUS44 KSHV 211700
TAFELD
TAF
KELD 211739Z 2118/2218 10005KT P6SM SCT040
     FM220000 13005KT P6SM BKN050
     FM220600 16004KT 5SM BR BKN015
     FM220900 16004KT 2SM BR BKN008
      TEMPO 2211/2215 3/4SM -DZ BR OVC004
     FM221600 16007KT 4SM BR OVC004=

USA.gov is the U.S. government's official web portal to all federal, state and local government web resources and services.